sensor_id;sensor_type;location;lat;lon;timestamp;P1;durP1;ratioP1;P2;durP2;ratioP2
54235;SDS011;40151;43.606;1.472;2022-07-29T00:01:18;4.20;;;2.40;;
54235;SDS011;40151;43.606;1.472;2022-07-29T00:03:48;3.88;;;2.28;;
54235;SDS011;40151;43.606;1.472;2022-07-29T00:06:49;3.22;;;2.00;;
54235;SDS011;40151;43.606;1.472;2022-07-29T00:18:23;3.65;;;2.33;;
54235;SDS011;40151;43.606;1.472;2022-07-29T00:23:27;3.30;;;2.63;;
54235;SDS011;40151;43.606;1.472;2022-07-29T02:09:36;4.15;;;2.47;;
54235;SDS011;40151;43.606;1.472;2022-07-29T02:30:03;3.77;;;2.00;;
54235;SDS011;40151;43.606;1.472;2022-07-29T02:35:50;3.30;;;2.00;;
54235;SDS011;40151;43.606;1.472;2022-07-29T03:04:51;2.95;;;1.95;;
54235;SDS011;40151;43.606;1.472;2022-07-29T03:13:10;3.28;;;1.88;;
54235;SDS011;40151;43.606;1.472;2022-07-29T03:33:46;4.68;;;2.22;;
54235;SDS011;40151;43.606;1.472;2022-07-29T03:42:31;3.03;;;2.00;;
54235;SDS011;40151;43.606;1.472;2022-07-29T05:06:24;3.22;;;1.45;;
54235;SDS011;40151;43.606;1.472;2022-07-29T05:09:04;2.85;;;1.60;;
54235;SDS011;40151;43.606;1.472;2022-07-29T05:11:30;3.00;;;1.50;;
54235;SDS011;40151;43.606;1.472;2022-07-29T05:13:56;3.10;;;1.83;;
54235;SDS011;40151;43.606;1.472;2022-07-29T05:16:21;3.40;;;1.63;;
54235;SDS011;40151;43.606;1.472;2022-07-29T05:18:50;2.45;;;1.70;;
54235;SDS011;40151;43.606;1.472;2022-07-29T05:21:18;3.08;;;1.92;;
54235;SDS011;40151;43.606;1.472;2022-07-29T05:23:44;2.58;;;1.50;;
54235;SDS011;40151;43.606;1.472;2022-07-29T05:26:09;3.25;;;1.88;;
54235;SDS011;40151;43.606;1.472;2022-07-29T05:28:36;2.50;;;1.80;;
54235;SDS011;40151;43.606;1.472;2022-07-29T05:31:02;2.67;;;1.58;;
54235;SDS011;40151;43.606;1.472;2022-07-29T05:33:27;2.85;;;1.70;;
54235;SDS011;40151;43.606;1.472;2022-07-29T05:35:53;3.97;;;1.92;;
54235;SDS011;40151;43.606;1.472;2022-07-29T05:38:19;2.78;;;1.67;;
54235;SDS011;40151;43.606;1.472;2022-07-29T05:40:45;2.75;;;1.73;;
54235;SDS011;40151;43.606;1.472;2022-07-29T05:43:14;2.78;;;1.65;;
54235;SDS011;40151;43.606;1.472;2022-07-29T05:45:39;3.42;;;1.80;;
54235;SDS011;40151;43.606;1.472;2022-07-29T05:48:05;3.42;;;1.65;;
54235;SDS011;40151;43.606;1.472;2022-07-29T05:50:31;3.20;;;1.83;;
54235;SDS011;40151;43.606;1.472;2022-07-29T05:52:57;2.65;;;1.55;;
54235;SDS011;40151;43.606;1.472;2022-07-29T05:55:23;4.05;;;1.73;;
54235;SDS011;40151;43.606;1.472;2022-07-29T05:57:48;3.25;;;1.98;;
54235;SDS011;40151;43.606;1.472;2022-07-29T06:00:14;4.25;;;2.10;;
54235;SDS011;40151;43.606;1.472;2022-07-29T06:02:41;3.85;;;1.90;;
54235;SDS011;40151;43.606;1.472;2022-07-29T06:05:07;4.32;;;1.83;;
54235;SDS011;40151;43.606;1.472;2022-07-29T06:07:33;2.92;;;1.60;;
54235;SDS011;40151;43.606;1.472;2022-07-29T06:09:59;3.70;;;1.83;;
54235;SDS011;40151;43.606;1.472;2022-07-29T06:12:29;3.78;;;1.92;;
54235;SDS011;40151;43.606;1.472;2022-07-29T06:14:55;2.67;;;1.67;;
54235;SDS011;40151;43.606;1.472;2022-07-29T06:17:21;3.08;;;1.75;;
54235;SDS011;40151;43.606;1.472;2022-07-29T06:19:47;4.47;;;2.10;;
54235;SDS011;40151;43.606;1.472;2022-07-29T06:22:14;2.75;;;1.50;;
54235;SDS011;40151;43.606;1.472;2022-07-29T06:24:41;3.25;;;1.83;;
54235;SDS011;40151;43.606;1.472;2022-07-29T06:27:12;3.15;;;1.92;;
54235;SDS011;40151;43.606;1.472;2022-07-29T06:29:38;3.72;;;2.05;;
54235;SDS011;40151;43.606;1.472;2022-07-29T06:32:04;4.65;;;2.10;;
54235;SDS011;40151;43.606;1.472;2022-07-29T06:34:31;3.60;;;1.92;;
54235;SDS011;40151;43.606;1.472;2022-07-29T06:37:12;3.97;;;2.03;;
54235;SDS011;40151;43.606;1.472;2022-07-29T06:40:03;4.28;;;2.05;;
54235;SDS011;40151;43.606;1.472;2022-07-29T06:42:47;3.03;;;1.73;;
54235;SDS011;40151;43.606;1.472;2022-07-29T06:45:13;3.63;;;1.90;;
54235;SDS011;40151;43.606;1.472;2022-07-29T06:47:40;4.85;;;1.88;;
54235;SDS011;40151;43.606;1.472;2022-07-29T06:50:06;3.17;;;1.83;;
54235;SDS011;40151;43.606;1.472;2022-07-29T06:52:36;4.00;;;1.77;;
54235;SDS011;40151;43.606;1.472;2022-07-29T06:55:02;4.28;;;1.98;;
54235;SDS011;40151;43.606;1.472;2022-07-29T06:57:28;3.10;;;1.70;;
54235;SDS011;40151;43.606;1.472;2022-07-29T06:59:55;4.82;;;1.95;;
54235;SDS011;40151;43.606;1.472;2022-07-29T07:02:22;4.65;;;1.75;;
54235;SDS011;40151;43.606;1.472;2022-07-29T07:04:48;3.55;;;2.00;;
54235;SDS011;40151;43.606;1.472;2022-07-29T07:07:19;3.03;;;1.73;;
54235;SDS011;40151;43.606;1.472;2022-07-29T07:09:45;3.00;;;2.10;;
54235;SDS011;40151;43.606;1.472;2022-07-29T07:12:11;3.50;;;1.80;;
54235;SDS011;40151;43.606;1.472;2022-07-29T07:14:37;4.82;;;1.90;;
54235;SDS011;40151;43.606;1.472;2022-07-29T07:17:04;3.33;;;1.73;;
54235;SDS011;40151;43.606;1.472;2022-07-29T07:19:32;3.08;;;1.50;;
54235;SDS011;40151;43.606;1.472;2022-07-29T07:21:57;3.78;;;1.85;;
54235;SDS011;40151;43.606;1.472;2022-07-29T07:24:23;2.85;;;1.58;;
54235;SDS011;40151;43.606;1.472;2022-07-29T07:26:49;4.28;;;2.15;;
54235;SDS011;40151;43.606;1.472;2022-07-29T07:29:16;2.60;;;1.50;;
54235;SDS011;40151;43.606;1.472;2022-07-29T07:31:42;3.15;;;1.92;;
54235;SDS011;40151;43.606;1.472;2022-07-29T07:34:08;3.13;;;1.60;;
54235;SDS011;40151;43.606;1.472;2022-07-29T07:36:39;3.97;;;1.80;;
54235;SDS011;40151;43.606;1.472;2022-07-29T07:39:23;4.97;;;2.10;;
54235;SDS011;40151;43.606;1.472;2022-07-29T07:41:52;3.55;;;1.70;;
54235;SDS011;40151;43.606;1.472;2022-07-29T07:44:22;4.20;;;1.92;;
54235;SDS011;40151;43.606;1.472;2022-07-29T07:46:48;4.28;;;2.15;;
54235;SDS011;40151;43.606;1.472;2022-07-29T07:49:14;3.78;;;1.90;;
54235;SDS011;40151;43.606;1.472;2022-07-29T07:52:19;3.58;;;1.80;;
54235;SDS011;40151;43.606;1.472;2022-07-29T07:54:49;3.25;;;1.88;;
54235;SDS011;40151;43.606;1.472;2022-07-29T08:03:23;3.70;;;1.73;;
54235;SDS011;40151;43.606;1.472;2022-07-29T08:05:56;3.42;;;2.20;;
54235;SDS011;40151;43.606;1.472;2022-07-29T08:10:58;3.80;;;2.00;;
54235;SDS011;40151;43.606;1.472;2022-07-29T08:13:30;3.50;;;1.85;;
54235;SDS011;40151;43.606;1.472;2022-07-29T08:31:29;4.80;;;1.92;;
54235;SDS011;40151;43.606;1.472;2022-07-29T08:33:59;3.72;;;1.60;;
54235;SDS011;40151;43.606;1.472;2022-07-29T08:36:30;3.78;;;2.15;;
54235;SDS011;40151;43.606;1.472;2022-07-29T08:39:00;3.33;;;1.90;;
54235;SDS011;40151;43.606;1.472;2022-07-29T08:51:29;3.30;;;1.85;;
54235;SDS011;40151;43.606;1.472;2022-07-29T09:10:06;3.05;;;1.70;;
54235;SDS011;40151;43.606;1.472;2022-07-29T09:12:48;3.95;;;2.00;;
54235;SDS011;40151;43.606;1.472;2022-07-29T09:15:15;3.47;;;1.73;;
54235;SDS011;40151;43.606;1.472;2022-07-29T09:18:51;2.70;;;1.65;;
54235;SDS011;40151;43.606;1.472;2022-07-29T09:21:58;3.08;;;1.88;;
54235;SDS011;40151;43.606;1.472;2022-07-29T09:28:31;2.95;;;2.00;;
54235;SDS011;40151;43.606;1.472;2022-07-29T09:31:08;3.83;;;1.90;;
54235;SDS011;40151;43.606;1.472;2022-07-29T09:36:14;3.77;;;2.13;;
54235;SDS011;40151;43.606;1.472;2022-07-29T09:39:00;3.70;;;1.83;;
54235;SDS011;40151;43.606;1.472;2022-07-29T09:41:31;3.95;;;2.10;;
54235;SDS011;40151;43.606;1.472;2022-07-29T09:44:14;3.08;;;1.80;;
54235;SDS011;40151;43.606;1.472;2022-07-29T09:46:58;3.70;;;2.10;;
54235;SDS011;40151;43.606;1.472;2022-07-29T09:49:32;4.82;;;2.63;;
54235;SDS011;40151;43.606;1.472;2022-07-29T09:55:07;5.80;;;2.30;;
54235;SDS011;40151;43.606;1.472;2022-07-29T09:57:36;3.03;;;1.92;;
54235;SDS011;40151;43.606;1.472;2022-07-29T10:10:28;4.45;;;2.38;;
54235;SDS011;40151;43.606;1.472;2022-07-29T10:13:10;3.53;;;2.30;;
54235;SDS011;40151;43.606;1.472;2022-07-29T10:20:08;4.97;;;2.67;;
54235;SDS011;40151;43.606;1.472;2022-07-29T10:22:53;4.18;;;2.45;;
54235;SDS011;40151;43.606;1.472;2022-07-29T10:25:44;3.85;;;2.38;;
54235;SDS011;40151;43.606;1.472;2022-07-29T10:31:44;4.85;;;2.70;;
54235;SDS011;40151;43.606;1.472;2022-07-29T10:34:29;5.00;;;2.80;;
54235;SDS011;40151;43.606;1.472;2022-07-29T10:44:30;4.75;;;2.45;;
54235;SDS011;40151;43.606;1.472;2022-07-29T10:47:10;4.25;;;2.22;;
54235;SDS011;40151;43.606;1.472;2022-07-29T10:50:03;3.72;;;2.30;;
54235;SDS011;40151;43.606;1.472;2022-07-29T10:55:39;3.97;;;2.50;;
54235;SDS011;40151;43.606;1.472;2022-07-29T10:58:19;3.67;;;2.42;;
54235;SDS011;40151;43.606;1.472;2022-07-29T11:01:03;4.50;;;2.63;;
54235;SDS011;40151;43.606;1.472;2022-07-29T11:03:57;3.47;;;2.10;;
54235;SDS011;40151;43.606;1.472;2022-07-29T11:06:50;3.45;;;2.20;;
54235;SDS011;40151;43.606;1.472;2022-07-29T11:12:56;3.38;;;2.10;;
54235;SDS011;40151;43.606;1.472;2022-07-29T11:15:25;4.45;;;2.50;;
54235;SDS011;40151;43.606;1.472;2022-07-29T11:20:43;3.83;;;2.60;;
54235;SDS011;40151;43.606;1.472;2022-07-29T11:23:26;3.80;;;2.85;;
54235;SDS011;40151;43.606;1.472;2022-07-29T11:31:52;3.65;;;2.22;;
54235;SDS011;40151;43.606;1.472;2022-07-29T11:34:31;3.58;;;2.47;;
54235;SDS011;40151;43.606;1.472;2022-07-29T11:40:26;3.95;;;2.65;;
54235;SDS011;40151;43.606;1.472;2022-07-29T11:47:03;3.40;;;2.35;;
54235;SDS011;40151;43.606;1.472;2022-07-29T11:50:13;4.53;;;2.97;;
54235;SDS011;40151;43.606;1.472;2022-07-29T11:52:42;4.72;;;2.95;;
54235;SDS011;40151;43.606;1.472;2022-07-29T11:55:17;4.35;;;2.70;;
54235;SDS011;40151;43.606;1.472;2022-07-29T11:57:45;3.47;;;2.30;;
54235;SDS011;40151;43.606;1.472;2022-07-29T12:00:35;4.28;;;2.47;;
54235;SDS011;40151;43.606;1.472;2022-07-29T12:03:09;3.75;;;2.42;;
54235;SDS011;40151;43.606;1.472;2022-07-29T12:05:43;3.05;;;1.90;;
54235;SDS011;40151;43.606;1.472;2022-07-29T12:08:15;3.53;;;2.30;;
54235;SDS011;40151;43.606;1.472;2022-07-29T12:10:47;3.33;;;2.28;;
54235;SDS011;40151;43.606;1.472;2022-07-29T12:13:25;2.95;;;2.03;;
54235;SDS011;40151;43.606;1.472;2022-07-29T12:16:04;4.28;;;2.22;;
54235;SDS011;40151;43.606;1.472;2022-07-29T12:18:33;4.40;;;2.50;;
54235;SDS011;40151;43.606;1.472;2022-07-29T12:21:00;3.42;;;2.10;;
54235;SDS011;40151;43.606;1.472;2022-07-29T12:23:30;3.67;;;2.20;;
54235;SDS011;40151;43.606;1.472;2022-07-29T12:25:57;3.88;;;2.55;;
54235;SDS011;40151;43.606;1.472;2022-07-29T12:28:24;3.65;;;2.45;;
54235;SDS011;40151;43.606;1.472;2022-07-29T12:30:52;3.35;;;2.28;;
54235;SDS011;40151;43.606;1.472;2022-07-29T12:33:22;4.00;;;2.53;;
54235;SDS011;40151;43.606;1.472;2022-07-29T12:35:56;4.30;;;2.30;;
54235;SDS011;40151;43.606;1.472;2022-07-29T12:38:23;3.10;;;2.38;;
54235;SDS011;40151;43.606;1.472;2022-07-29T12:40:53;4.55;;;2.40;;
54235;SDS011;40151;43.606;1.472;2022-07-29T12:43:20;3.45;;;2.25;;
54235;SDS011;40151;43.606;1.472;2022-07-29T12:45:49;4.05;;;2.40;;
54235;SDS011;40151;43.606;1.472;2022-07-29T12:48:38;4.97;;;2.72;;
54235;SDS011;40151;43.606;1.472;2022-07-29T12:51:07;3.20;;;2.03;;
54235;SDS011;40151;43.606;1.472;2022-07-29T12:53:36;3.65;;;2.10;;
54235;SDS011;40151;43.606;1.472;2022-07-29T12:56:03;3.55;;;2.20;;
54235;SDS011;40151;43.606;1.472;2022-07-29T13:01:08;4.88;;;2.17;;
54235;SDS011;40151;43.606;1.472;2022-07-29T13:03:56;3.05;;;2.10;;
54235;SDS011;40151;43.606;1.472;2022-07-29T13:06:42;3.78;;;2.30;;
54235;SDS011;40151;43.606;1.472;2022-07-29T13:09:18;3.92;;;2.20;;
54235;SDS011;40151;43.606;1.472;2022-07-29T13:11:49;3.95;;;2.10;;
54235;SDS011;40151;43.606;1.472;2022-07-29T13:14:32;2.80;;;2.05;;
54235;SDS011;40151;43.606;1.472;2022-07-29T13:17:09;2.55;;;1.95;;
54235;SDS011;40151;43.606;1.472;2022-07-29T13:20:08;3.30;;;1.90;;
54235;SDS011;40151;43.606;1.472;2022-07-29T13:22:41;2.80;;;1.98;;
54235;SDS011;40151;43.606;1.472;2022-07-29T13:25:08;3.88;;;1.95;;
54235;SDS011;40151;43.606;1.472;2022-07-29T13:27:36;2.97;;;1.98;;
54235;SDS011;40151;43.606;1.472;2022-07-29T13:30:08;3.08;;;1.95;;
54235;SDS011;40151;43.606;1.472;2022-07-29T13:32:38;3.70;;;2.15;;
54235;SDS011;40151;43.606;1.472;2022-07-29T13:35:05;4.22;;;2.08;;
54235;SDS011;40151;43.606;1.472;2022-07-29T13:37:39;3.92;;;2.17;;
54235;SDS011;40151;43.606;1.472;2022-07-29T13:40:08;2.83;;;1.85;;
54235;SDS011;40151;43.606;1.472;2022-07-29T13:42:39;2.90;;;1.75;;
54235;SDS011;40151;43.606;1.472;2022-07-29T13:45:06;3.20;;;2.08;;
54235;SDS011;40151;43.606;1.472;2022-07-29T13:47:34;3.17;;;1.80;;
54235;SDS011;40151;43.606;1.472;2022-07-29T13:50:00;2.78;;;1.80;;
54235;SDS011;40151;43.606;1.472;2022-07-29T13:52:27;2.40;;;1.60;;
54235;SDS011;40151;43.606;1.472;2022-07-29T13:54:53;2.70;;;1.90;;
54235;SDS011;40151;43.606;1.472;2022-07-29T13:57:18;3.03;;;1.90;;
54235;SDS011;40151;43.606;1.472;2022-07-29T13:59:58;2.70;;;1.70;;
54235;SDS011;40151;43.606;1.472;2022-07-29T14:02:25;3.30;;;2.25;;
54235;SDS011;40151;43.606;1.472;2022-07-29T14:04:52;3.67;;;1.98;;
54235;SDS011;40151;43.606;1.472;2022-07-29T14:07:18;2.97;;;1.90;;
54235;SDS011;40151;43.606;1.472;2022-07-29T14:09:57;2.95;;;1.80;;
54235;SDS011;40151;43.606;1.472;2022-07-29T14:12:23;2.88;;;2.05;;
54235;SDS011;40151;43.606;1.472;2022-07-29T14:14:53;2.47;;;1.88;;
54235;SDS011;40151;43.606;1.472;2022-07-29T14:17:25;3.08;;;1.95;;
54235;SDS011;40151;43.606;1.472;2022-07-29T14:19:52;3.40;;;1.95;;
54235;SDS011;40151;43.606;1.472;2022-07-29T14:22:24;3.53;;;1.92;;
54235;SDS011;40151;43.606;1.472;2022-07-29T14:24:50;3.60;;;1.73;;
54235;SDS011;40151;43.606;1.472;2022-07-29T14:27:16;2.13;;;1.73;;
54235;SDS011;40151;43.606;1.472;2022-07-29T14:29:46;2.75;;;1.70;;
54235;SDS011;40151;43.606;1.472;2022-07-29T14:32:28;2.80;;;1.90;;
54235;SDS011;40151;43.606;1.472;2022-07-29T14:34:54;2.92;;;1.98;;
54235;SDS011;40151;43.606;1.472;2022-07-29T14:40:32;2.80;;;1.80;;
54235;SDS011;40151;43.606;1.472;2022-07-29T14:42:58;4.15;;;1.98;;
54235;SDS011;40151;43.606;1.472;2022-07-29T14:45:24;3.47;;;1.85;;
54235;SDS011;40151;43.606;1.472;2022-07-29T14:47:54;3.53;;;2.00;;
54235;SDS011;40151;43.606;1.472;2022-07-29T14:50:20;3.25;;;1.98;;
54235;SDS011;40151;43.606;1.472;2022-07-29T14:52:46;3.08;;;1.90;;
54235;SDS011;40151;43.606;1.472;2022-07-29T14:55:12;3.13;;;2.05;;
54235;SDS011;40151;43.606;1.472;2022-07-29T14:57:38;4.72;;;1.73;;
54235;SDS011;40151;43.606;1.472;2022-07-29T15:00:05;2.97;;;1.92;;
54235;SDS011;40151;43.606;1.472;2022-07-29T15:02:32;2.65;;;1.70;;
54235;SDS011;40151;43.606;1.472;2022-07-29T15:04:59;3.28;;;1.70;;
54235;SDS011;40151;43.606;1.472;2022-07-29T15:07:26;3.42;;;2.03;;
54235;SDS011;40151;43.606;1.472;2022-07-29T15:09:52;2.05;;;1.50;;
54235;SDS011;40151;43.606;1.472;2022-07-29T15:12:20;2.72;;;1.55;;
54235;SDS011;40151;43.606;1.472;2022-07-29T15:14:49;2.50;;;1.55;;
54235;SDS011;40151;43.606;1.472;2022-07-29T15:17:14;2.40;;;1.50;;
54235;SDS011;40151;43.606;1.472;2022-07-29T15:19:40;3.00;;;1.83;;
54235;SDS011;40151;43.606;1.472;2022-07-29T15:22:06;2.80;;;1.70;;
54235;SDS011;40151;43.606;1.472;2022-07-29T15:24:34;2.53;;;1.85;;
54235;SDS011;40151;43.606;1.472;2022-07-29T15:27:02;4.07;;;1.73;;
54235;SDS011;40151;43.606;1.472;2022-07-29T15:29:28;2.72;;;1.90;;
54235;SDS011;40151;43.606;1.472;2022-07-29T15:31:54;1.77;;;1.50;;
54235;SDS011;40151;43.606;1.472;2022-07-29T15:34:20;3.10;;;1.95;;
54235;SDS011;40151;43.606;1.472;2022-07-29T15:36:49;2.65;;;1.55;;
54235;SDS011;40151;43.606;1.472;2022-07-29T15:39:17;2.85;;;1.70;;
54235;SDS011;40151;43.606;1.472;2022-07-29T15:41:47;2.47;;;1.92;;
54235;SDS011;40151;43.606;1.472;2022-07-29T15:44:13;2.50;;;1.80;;
54235;SDS011;40151;43.606;1.472;2022-07-29T15:46:42;3.88;;;2.00;;
54235;SDS011;40151;43.606;1.472;2022-07-29T15:49:27;2.47;;;1.70;;
54235;SDS011;40151;43.606;1.472;2022-07-29T15:52:04;3.05;;;1.52;;
54235;SDS011;40151;43.606;1.472;2022-07-29T15:54:51;3.08;;;1.80;;
54235;SDS011;40151;43.606;1.472;2022-07-29T15:57:18;2.53;;;1.80;;
54235;SDS011;40151;43.606;1.472;2022-07-29T15:59:44;2.85;;;1.60;;
54235;SDS011;40151;43.606;1.472;2022-07-29T16:02:20;2.25;;;1.65;;
54235;SDS011;40151;43.606;1.472;2022-07-29T16:04:49;2.10;;;1.42;;
54235;SDS011;40151;43.606;1.472;2022-07-29T16:07:16;1.90;;;1.40;;
54235;SDS011;40151;43.606;1.472;2022-07-29T16:10:00;2.78;;;1.65;;
54235;SDS011;40151;43.606;1.472;2022-07-29T16:13:20;3.00;;;1.95;;
54235;SDS011;40151;43.606;1.472;2022-07-29T16:16:13;2.88;;;1.80;;
54235;SDS011;40151;43.606;1.472;2022-07-29T16:19:02;2.88;;;1.88;;
54235;SDS011;40151;43.606;1.472;2022-07-29T16:21:47;3.20;;;1.98;;
54235;SDS011;40151;43.606;1.472;2022-07-29T16:24:40;2.25;;;1.80;;
54235;SDS011;40151;43.606;1.472;2022-07-29T16:27:06;2.50;;;1.55;;
54235;SDS011;40151;43.606;1.472;2022-07-29T16:29:43;3.45;;;1.90;;
54235;SDS011;40151;43.606;1.472;2022-07-29T16:32:13;2.30;;;1.60;;
54235;SDS011;40151;43.606;1.472;2022-07-29T16:34:38;3.67;;;2.10;;
54235;SDS011;40151;43.606;1.472;2022-07-29T16:37:06;2.75;;;1.67;;
54235;SDS011;40151;43.606;1.472;2022-07-29T16:39:32;2.15;;;1.65;;
54235;SDS011;40151;43.606;1.472;2022-07-29T16:41:58;3.55;;;2.17;;
54235;SDS011;40151;43.606;1.472;2022-07-29T16:44:24;2.05;;;1.70;;
54235;SDS011;40151;43.606;1.472;2022-07-29T16:46:51;2.45;;;1.73;;
54235;SDS011;40151;43.606;1.472;2022-07-29T16:49:16;3.28;;;1.80;;
54235;SDS011;40151;43.606;1.472;2022-07-29T16:51:43;3.63;;;2.00;;
54235;SDS011;40151;43.606;1.472;2022-07-29T16:54:09;2.53;;;1.75;;
54235;SDS011;40151;43.606;1.472;2022-07-29T16:56:35;3.60;;;1.95;;
54235;SDS011;40151;43.606;1.472;2022-07-29T16:59:03;2.88;;;1.95;;
54235;SDS011;40151;43.606;1.472;2022-07-29T17:01:29;2.33;;;1.70;;
54235;SDS011;40151;43.606;1.472;2022-07-29T17:03:55;2.45;;;1.80;;
54235;SDS011;40151;43.606;1.472;2022-07-29T17:06:33;2.72;;;1.80;;
54235;SDS011;40151;43.606;1.472;2022-07-29T17:09:22;2.60;;;1.80;;
54235;SDS011;40151;43.606;1.472;2022-07-29T17:11:50;2.88;;;1.95;;
54235;SDS011;40151;43.606;1.472;2022-07-29T17:14:29;2.92;;;1.90;;
54235;SDS011;40151;43.606;1.472;2022-07-29T17:16:57;3.42;;;2.03;;
54235;SDS011;40151;43.606;1.472;2022-07-29T17:20:11;2.85;;;2.08;;
54235;SDS011;40151;43.606;1.472;2022-07-29T17:26:18;3.20;;;2.13;;
54235;SDS011;40151;43.606;1.472;2022-07-29T17:28:44;3.83;;;1.80;;
54235;SDS011;40151;43.606;1.472;2022-07-29T17:31:13;3.13;;;2.13;;
54235;SDS011;40151;43.606;1.472;2022-07-29T17:33:39;3.00;;;1.75;;
54235;SDS011;40151;43.606;1.472;2022-07-29T17:36:14;3.47;;;1.83;;
54235;SDS011;40151;43.606;1.472;2022-07-29T17:39:06;3.25;;;1.88;;
54235;SDS011;40151;43.606;1.472;2022-07-29T17:41:38;2.80;;;2.10;;
54235;SDS011;40151;43.606;1.472;2022-07-29T17:44:06;3.05;;;1.90;;
54235;SDS011;40151;43.606;1.472;2022-07-29T17:46:34;3.20;;;1.70;;
54235;SDS011;40151;43.606;1.472;2022-07-29T17:49:00;2.80;;;1.73;;
54235;SDS011;40151;43.606;1.472;2022-07-29T17:51:26;3.20;;;1.95;;
54235;SDS011;40151;43.606;1.472;2022-07-29T17:53:52;3.13;;;2.17;;
54235;SDS011;40151;43.606;1.472;2022-07-29T17:56:19;2.58;;;1.70;;
54235;SDS011;40151;43.606;1.472;2022-07-29T17:58:48;3.10;;;2.00;;
54235;SDS011;40151;43.606;1.472;2022-07-29T18:01:14;3.40;;;1.88;;
54235;SDS011;40151;43.606;1.472;2022-07-29T18:03:43;3.47;;;1.80;;
54235;SDS011;40151;43.606;1.472;2022-07-29T18:06:13;4.13;;;2.00;;
54235;SDS011;40151;43.606;1.472;2022-07-29T18:08:39;3.10;;;1.90;;
54235;SDS011;40151;43.606;1.472;2022-07-29T18:11:06;2.65;;;1.80;;
54235;SDS011;40151;43.606;1.472;2022-07-29T18:17:17;4.00;;;2.10;;
54235;SDS011;40151;43.606;1.472;2022-07-29T18:19:43;4.28;;;1.88;;
54235;SDS011;40151;43.606;1.472;2022-07-29T18:22:09;2.97;;;1.73;;
54235;SDS011;40151;43.606;1.472;2022-07-29T18:24:38;3.22;;;1.73;;
54235;SDS011;40151;43.606;1.472;2022-07-29T18:27:26;3.85;;;2.17;;
54235;SDS011;40151;43.606;1.472;2022-07-29T18:29:52;3.00;;;1.88;;
54235;SDS011;40151;43.606;1.472;2022-07-29T18:32:39;4.03;;;2.38;;
54235;SDS011;40151;43.606;1.472;2022-07-29T18:39:22;3.20;;;2.00;;
54235;SDS011;40151;43.606;1.472;2022-07-29T18:42:08;2.95;;;1.95;;
54235;SDS011;40151;43.606;1.472;2022-07-29T18:45:24;3.58;;;1.98;;
54235;SDS011;40151;43.606;1.472;2022-07-29T18:48:25;3.53;;;2.40;;
54235;SDS011;40151;43.606;1.472;2022-07-29T18:50:58;2.78;;;1.92;;
54235;SDS011;40151;43.606;1.472;2022-07-29T18:53:28;3.20;;;1.98;;
54235;SDS011;40151;43.606;1.472;2022-07-29T18:56:15;4.70;;;2.15;;
54235;SDS011;40151;43.606;1.472;2022-07-29T18:58:57;4.32;;;2.40;;
54235;SDS011;40151;43.606;1.472;2022-07-29T19:01:35;3.85;;;2.17;;
54235;SDS011;40151;43.606;1.472;2022-07-29T19:04:03;2.83;;;1.98;;
54235;SDS011;40151;43.606;1.472;2022-07-29T19:06:36;3.33;;;1.98;;
54235;SDS011;40151;43.606;1.472;2022-07-29T19:09:11;3.13;;;1.90;;
54235;SDS011;40151;43.606;1.472;2022-07-29T19:11:43;3.05;;;1.90;;
54235;SDS011;40151;43.606;1.472;2022-07-29T19:14:26;4.15;;;1.83;;
54235;SDS011;40151;43.606;1.472;2022-07-29T19:17:12;4.13;;;2.13;;
54235;SDS011;40151;43.606;1.472;2022-07-29T19:19:41;3.00;;;1.85;;
54235;SDS011;40151;43.606;1.472;2022-07-29T19:22:13;3.17;;;1.90;;
54235;SDS011;40151;43.606;1.472;2022-07-29T19:25:07;4.28;;;2.40;;
54235;SDS011;40151;43.606;1.472;2022-07-29T19:31:57;3.13;;;2.20;;
54235;SDS011;40151;43.606;1.472;2022-07-29T19:48:44;4.88;;;2.20;;
54235;SDS011;40151;43.606;1.472;2022-07-29T19:51:39;4.63;;;1.73;;
54235;SDS011;40151;43.606;1.472;2022-07-29T19:54:07;2.92;;;1.88;;
54235;SDS011;40151;43.606;1.472;2022-07-29T19:57:24;3.28;;;1.88;;
54235;SDS011;40151;43.606;1.472;2022-07-29T20:03:43;2.65;;;1.77;;
54235;SDS011;40151;43.606;1.472;2022-07-29T20:06:21;3.78;;;2.33;;
54235;SDS011;40151;43.606;1.472;2022-07-29T20:08:49;3.60;;;2.00;;
54235;SDS011;40151;43.606;1.472;2022-07-29T20:11:18;2.72;;;2.00;;
54235;SDS011;40151;43.606;1.472;2022-07-29T20:13:54;4.43;;;2.13;;
54235;SDS011;40151;43.606;1.472;2022-07-29T20:16:45;3.85;;;2.08;;
54235;SDS011;40151;43.606;1.472;2022-07-29T20:19:15;3.00;;;1.90;;
54235;SDS011;40151;43.606;1.472;2022-07-29T20:21:45;2.95;;;2.15;;
54235;SDS011;40151;43.606;1.472;2022-07-29T20:24:39;3.40;;;2.15;;
54235;SDS011;40151;43.606;1.472;2022-07-29T20:27:21;2.88;;;2.05;;
54235;SDS011;40151;43.606;1.472;2022-07-29T20:36:22;3.97;;;2.22;;
54235;SDS011;40151;43.606;1.472;2022-07-29T20:39:05;2.47;;;1.73;;
54235;SDS011;40151;43.606;1.472;2022-07-29T20:41:59;3.72;;;2.33;;
54235;SDS011;40151;43.606;1.472;2022-07-29T20:44:29;2.95;;;2.10;;
54235;SDS011;40151;43.606;1.472;2022-07-29T20:46:54;3.92;;;2.22;;
54235;SDS011;40151;43.606;1.472;2022-07-29T20:49:23;2.92;;;2.15;;
54235;SDS011;40151;43.606;1.472;2022-07-29T20:51:54;2.78;;;1.88;;
54235;SDS011;40151;43.606;1.472;2022-07-29T20:54:22;3.03;;;1.80;;
54235;SDS011;40151;43.606;1.472;2022-07-29T20:56:57;3.20;;;2.20;;
54235;SDS011;40151;43.606;1.472;2022-07-29T20:59:26;3.25;;;1.92;;
54235;SDS011;40151;43.606;1.472;2022-07-29T21:01:57;3.25;;;2.40;;
54235;SDS011;40151;43.606;1.472;2022-07-29T21:04:29;2.65;;;1.90;;
54235;SDS011;40151;43.606;1.472;2022-07-29T21:10:58;2.65;;;1.88;;
54235;SDS011;40151;43.606;1.472;2022-07-29T21:13:25;3.17;;;2.10;;
54235;SDS011;40151;43.606;1.472;2022-07-29T21:15:55;3.05;;;2.13;;
54235;SDS011;40151;43.606;1.472;2022-07-29T21:18:25;3.78;;;2.30;;
54235;SDS011;40151;43.606;1.472;2022-07-29T21:20:56;3.42;;;2.17;;
54235;SDS011;40151;43.606;1.472;2022-07-29T21:23:24;2.83;;;2.05;;
54235;SDS011;40151;43.606;1.472;2022-07-29T21:25:52;4.50;;;2.38;;
54235;SDS011;40151;43.606;1.472;2022-07-29T21:28:39;2.97;;;2.22;;
54235;SDS011;40151;43.606;1.472;2022-07-29T21:31:10;3.88;;;2.45;;
54235;SDS011;40151;43.606;1.472;2022-07-29T21:33:45;3.28;;;2.10;;
54235;SDS011;40151;43.606;1.472;2022-07-29T21:36:11;3.03;;;2.20;;
54235;SDS011;40151;43.606;1.472;2022-07-29T21:38:43;3.00;;;2.20;;
54235;SDS011;40151;43.606;1.472;2022-07-29T21:41:18;3.30;;;2.42;;
54235;SDS011;40151;43.606;1.472;2022-07-29T21:44:14;3.42;;;2.35;;
54235;SDS011;40151;43.606;1.472;2022-07-29T21:47:36;4.07;;;2.90;;
54235;SDS011;40151;43.606;1.472;2022-07-29T21:50:04;3.85;;;2.50;;
54235;SDS011;40151;43.606;1.472;2022-07-29T22:02:32;3.38;;;2.28;;
54235;SDS011;40151;43.606;1.472;2022-07-29T22:05:29;3.22;;;2.08;;
54235;SDS011;40151;43.606;1.472;2022-07-29T22:15:04;3.60;;;2.22;;
54235;SDS011;40151;43.606;1.472;2022-07-29T22:17:34;3.67;;;2.05;;
54235;SDS011;40151;43.606;1.472;2022-07-29T22:20:03;3.67;;;2.33;;
54235;SDS011;40151;43.606;1.472;2022-07-29T22:22:38;3.50;;;2.20;;
54235;SDS011;40151;43.606;1.472;2022-07-29T22:25:13;4.05;;;2.42;;
54235;SDS011;40151;43.606;1.472;2022-07-29T22:27:44;3.22;;;2.22;;
54235;SDS011;40151;43.606;1.472;2022-07-29T22:30:20;4.00;;;2.58;;
54235;SDS011;40151;43.606;1.472;2022-07-29T22:32:48;3.20;;;2.10;;
54235;SDS011;40151;43.606;1.472;2022-07-29T22:35:14;3.95;;;2.08;;
54235;SDS011;40151;43.606;1.472;2022-07-29T22:40:20;3.40;;;2.30;;
54235;SDS011;40151;43.606;1.472;2022-07-29T23:07:35;3.72;;;2.60;;
54235;SDS011;40151;43.606;1.472;2022-07-29T23:20:06;3.28;;;2.15;;
54235;SDS011;40151;43.606;1.472;2022-07-29T23:22:34;3.95;;;2.83;;
54235;SDS011;40151;43.606;1.472;2022-07-29T23:28:51;4.10;;;2.60;;
54235;SDS011;40151;43.606;1.472;2022-07-29T23:31:31;4.05;;;2.60;;
54235;SDS011;40151;43.606;1.472;2022-07-29T23:33:57;4.40;;;2.30;;